Time;durP1;ratioP1;P1;durP2;ratioP2;P2;SDS_P1;SDS_P2;PMS_P1;PMS_P2;Temp;Humidity;BMP_temperature;BMP_pressure;BME280_temperature;BME280_humidity;BME280_pressure;Samples;Min_cycle;Max_cycle;Signal;HPM_P1;HPM_P2
2021/07/31 02:47:01;;;;;;;3.80;2.28;;;23.70;76.20;;;;;;4974414;24;20078;-77
2021/07/31 02:49:27;;;;;;;2.63;2.17;;;23.70;76.30;;;;;;4706323;30;20040;-77
2021/07/31 02:51:53;;;;;;;2.50;2.30;;;23.70;75.50;;;;;;4709117;30;20033;-77
2021/07/31 02:54:33;;;;;;;3.67;2.38;;;23.70;75.50;;;;;;4709356;30;20034;-77
2021/07/31 02:57:04;;;;;;;2.63;1.92;;;23.60;75.60;;;;;;4696531;30;20021;-77
2021/07/31 02:59:31;;;;;;;3.47;2.55;;;23.60;75.80;;;;;;4682380;30;20156;-77
2021/07/31 03:01:58;;;;;;;6.18;2.30;;;23.60;75.30;;;;;;4688838;30;20053;-78
2021/07/31 03:04:24;;;;;;;2.60;2.30;;;23.60;75.40;;;;;;4695837;30;20045;-77
2021/07/31 03:06:55;;;;;;;3.03;2.33;;;23.60;75.40;;;;;;4688744;30;20068;-77
2021/07/31 03:09:24;;;;;;;2.08;1.88;;;23.50;75.00;;;;;;4708798;30;20042;-77
2021/07/31 03:11:50;;;;;;;2.53;2.22;;;23.50;75.10;;;;;;4709456;30;20257;-77
2021/07/31 03:14:16;;;;;;;2.50;1.80;;;23.50;75.50;;;;;;4708554;30;20038;-77
2021/07/31 03:16:42;;;;;;;3.25;2.30;;;23.50;75.50;;;;;;4709053;30;20056;-77
2021/07/31 03:19:08;;;;;;;2.55;2.30;;;23.60;75.40;;;;;;4709440;30;20052;-78
2021/07/31 03:21:37;;;;;;;3.03;2.33;;;23.60;75.10;;;;;;4684203;30;20033;-77
2021/07/31 03:24:28;;;;;;;3.03;2.15;;;23.60;75.70;;;;;;4722129;30;20037;-77
2021/07/31 03:26:54;;;;;;;3.28;2.33;;;23.60;75.40;;;;;;4709194;30;20030;-77
2021/07/31 03:29:28;;;;;;;2.40;2.20;;;23.70;75.40;;;;;;4708199;30;20137;-77
2021/07/31 03:31:55;;;;;;;3.07;1.93;;;23.70;75.50;;;;;;4682169;30;20034;-76
2021/07/31 03:34:22;;;;;;;6.60;1.88;;;23.70;76.30;;;;;;4709214;30;20043;-77
2021/07/31 03:36:51;;;;;;;2.10;1.90;;;23.70;77.00;;;;;;4709061;30;20030;-77
2021/07/31 03:39:24;;;;;;;3.00;2.47;;;23.70;76.50;;;;;;4711083;30;20033;-77
2021/07/31 03:41:51;;;;;;;2.28;1.80;;;23.60;75.40;;;;;;4712435;30;20096;-77
2021/07/31 03:44:17;;;;;;;4.80;2.20;;;23.60;75.80;;;;;;4712176;30;20029;-77
2021/07/31 03:46:47;;;;;;;2.23;1.80;;;23.60;75.70;;;;;;4709975;30;20291;-77
2021/07/31 03:49:16;;;;;;;2.30;1.88;;;23.60;75.70;;;;;;4695341;30;20034;-78
2021/07/31 03:51:45;;;;;;;3.97;2.20;;;23.60;75.40;;;;;;4704768;30;20135;-77
2021/07/31 03:54:12;;;;;;;3.25;2.28;;;23.70;75.50;;;;;;4711184;30;20089;-77
2021/07/31 03:56:37;;;;;;;2.60;1.90;;;23.70;75.40;;;;;;4699117;30;20026;-77
2021/07/31 03:59:11;;;;;;;2.00;1.80;;;23.70;74.60;;;;;;4695663;30;20034;-77
2021/07/31 04:01:38;;;;;;;2.63;2.10;;;23.70;75.20;;;;;;4709900;30;20062;-77
2021/07/31 04:04:09;;;;;;;2.40;1.63;;;23.70;74.80;;;;;;4701281;30;20373;-77
2021/07/31 04:06:35;;;;;;;4.78;2.40;;;23.70;74.60;;;;;;4710512;30;20066;-77
2021/07/31 04:09:19;;;;;;;3.13;2.17;;;23.80;74.70;;;;;;4695591;30;20033;-78
2021/07/31 04:12:04;;;;;;;2.15;1.73;;;23.80;75.00;;;;;;4699575;30;20064;-78
2021/07/31 04:15:02;;;;;;;2.17;1.80;;;23.80;74.60;;;;;;4701702;30;20042;-77
2021/07/31 04:17:28;;;;;;;2.17;1.53;;;23.90;75.00;;;;;;4689442;30;20301;-78
2021/07/31 04:19:54;;;;;;;2.73;1.87;;;23.90;76.00;;;;;;4687058;30;20110;-77
2021/07/31 04:22:22;;;;;;;2.17;1.98;;;24.00;76.30;;;;;;4709410;30;20105;-76
2021/07/31 04:24:50;;;;;;;2.53;1.87;;;24.00;74.90;;;;;;4703777;30;20050;-77
2021/07/31 04:27:18;;;;;;;2.40;2.05;;;24.00;74.60;;;;;;4689258;30;20225;-78
2021/07/31 04:29:43;;;;;;;4.20;2.10;;;24.00;74.60;;;;;;4709661;30;20039;-78
2021/07/31 04:32:09;;;;;;;2.17;1.98;;;24.00;74.10;;;;;;4707292;30;20324;-78
2021/07/31 04:34:35;;;;;;;3.05;2.28;;;24.00;74.10;;;;;;4709340;30;20244;-77
2021/07/31 04:37:03;;;;;;;3.35;2.42;;;24.10;74.50;;;;;;4703356;30;20065;-77
2021/07/31 04:39:28;;;;;;;2.53;2.33;;;24.10;74.90;;;;;;4697895;30;20034;-77
2021/07/31 04:41:54;;;;;;;2.55;1.73;;;24.10;74.30;;;;;;4694241;30;20030;-77
2021/07/31 04:44:20;;;;;;;4.20;2.33;;;24.10;74.60;;;;;;4707213;30;20053;-78
2021/07/31 04:46:46;;;;;;;4.30;2.60;;;24.20;74.80;;;;;;4687563;30;20250;-78
2021/07/31 04:49:11;;;;;;;3.92;2.40;;;24.10;74.20;;;;;;4695282;30;20029;-77
2021/07/31 04:51:37;;;;;;;2.55;2.20;;;24.20;74.60;;;;;;4695849;30;20049;-77
2021/07/31 04:54:03;;;;;;;4.60;2.20;;;24.20;74.50;;;;;;4705048;30;20034;-77
2021/07/31 04:56:29;;;;;;;3.72;2.70;;;24.20;74.50;;;;;;4699122;30;20273;-77
2021/07/31 04:58:55;;;;;;;2.65;2.30;;;24.20;75.10;;;;;;4704506;30;20029;-77
2021/07/31 05:01:20;;;;;;;3.75;2.60;;;24.20;75.20;;;;;;4705235;30;20029;-77
2021/07/31 05:03:46;;;;;;;3.33;2.58;;;24.20;76.00;;;;;;4709800;30;20317;-77
2021/07/31 05:06:12;;;;;;;3.03;2.20;;;24.20;75.50;;;;;;4700788;30;20030;-77
2021/07/31 05:08:38;;;;;;;2.90;2.35;;;24.20;76.00;;;;;;4693361;30;20305;-78
2021/07/31 05:11:07;;;;;;;3.03;2.67;;;24.10;76.50;;;;;;4698496;30;20038;-77
2021/07/31 05:13:35;;;;;;;3.38;2.88;;;24.10;77.10;;;;;;4682293;30;20034;-77
2021/07/31 05:16:01;;;;;;;5.22;4.57;;;24.10;78.00;;;;;;4697660;30;20033;-77
2021/07/31 05:18:27;;;;;;;6.35;4.10;;;24.10;79.10;;;;;;4699124;30;20022;-77
2021/07/31 05:20:53;;;;;;;5.20;2.78;;;24.10;79.80;;;;;;4700868;30;20029;-77
2021/07/31 05:23:19;;;;;;;2.97;2.65;;;24.10;80.40;;;;;;4696272;30;20067;-77
2021/07/31 05:25:45;;;;;;;3.08;2.70;;;24.00;80.80;;;;;;4700080;30;20889;-78
2021/07/31 05:28:11;;;;;;;5.53;3.45;;;24.00;82.00;;;;;;4690456;30;20029;-77
2021/07/31 05:30:38;;;;;;;3.47;2.85;;;24.00;81.90;;;;;;4698817;30;20085;-77
2021/07/31 05:33:04;;;;;;;4.43;3.28;;;24.00;83.20;;;;;;4698712;30;20033;-77
2021/07/31 05:35:30;;;;;;;4.07;3.33;;;24.00;84.10;;;;;;4707847;30;20096;-77
2021/07/31 05:37:56;;;;;;;2.88;2.60;;;23.90;84.00;;;;;;4692522;30;20041;-77
2021/07/31 05:40:22;;;;;;;3.08;2.55;;;23.90;84.90;;;;;;4699604;30;20044;-78
2021/07/31 05:42:47;;;;;;;3.75;2.67;;;23.90;85.00;;;;;;4696592;30;20221;-77
2021/07/31 05:45:13;;;;;;;6.75;3.20;;;23.90;85.30;;;;;;4698079;30;20033;-77
2021/07/31 05:47:39;;;;;;;4.82;3.05;;;23.80;84.70;;;;;;4689734;30;20069;-77
2021/07/31 05:50:07;;;;;;;9.57;3.05;;;23.80;85.40;;;;;;4695232;30;20030;-78
2021/07/31 05:52:36;;;;;;;6.68;3.20;;;23.80;85.80;;;;;;4702239;30;20022;-77
2021/07/31 05:55:07;;;;;;;3.65;2.40;;;23.80;86.10;;;;;;4693397;30;20128;-74
2021/07/31 05:57:33;;;;;;;3.80;3.10;;;23.80;85.00;;;;;;4699231;30;20284;-74
2021/07/31 05:59:59;;;;;;;4.87;3.17;;;23.80;85.80;;;;;;4702770;30;20243;-75
2021/07/31 06:02:26;;;;;;;4.75;2.88;;;23.80;86.50;;;;;;4684669;30;20345;-75
2021/07/31 06:04:52;;;;;;;4.05;2.83;;;23.80;87.40;;;;;;4692957;30;20039;-75
2021/07/31 06:07:18;;;;;;;6.67;2.93;;;23.80;87.60;;;;;;4693066;30;20037;-75
2021/07/31 06:09:50;;;;;;;2.65;2.30;;;23.80;87.70;;;;;;4691973;30;20281;-75
2021/07/31 06:12:18;;;;;;;4.63;3.13;;;23.90;88.00;;;;;;4688194;30;20075;-75
2021/07/31 06:14:44;;;;;;;4.03;3.08;;;24.00;87.90;;;;;;4689820;30;20046;-75
2021/07/31 06:17:10;;;;;;;4.78;3.30;;;24.00;88.00;;;;;;4689725;30;20034;-75
2021/07/31 06:19:35;;;;;;;3.72;2.92;;;24.10;87.80;;;;;;4691136;30;20041;-75
2021/07/31 06:22:02;;;;;;;2.88;2.58;;;24.10;87.50;;;;;;4694647;30;20101;-75
2021/07/31 06:24:28;;;;;;;5.20;3.33;;;24.10;87.50;;;;;;4690632;30;20144;-75
2021/07/31 06:26:54;;;;;;;5.60;3.13;;;24.10;87.50;;;;;;4690528;30;20030;-74
2021/07/31 06:29:20;;;;;;;11.07;3.90;;;24.20;87.70;;;;;;4694461;30;20057;-75
2021/07/31 06:31:46;;;;;;;3.87;3.37;;;24.10;87.90;;;;;;4692421;30;20021;-74
2021/07/31 06:34:12;;;;;;;3.33;2.85;;;24.10;88.70;;;;;;4676746;30;20065;-75
2021/07/31 06:36:39;;;;;;;6.68;3.35;;;24.10;89.10;;;;;;4690062;30;20044;-75
2021/07/31 06:39:05;;;;;;;3.50;2.58;;;24.10;89.00;;;;;;4691336;30;20151;-75
2021/07/31 06:41:31;;;;;;;4.97;2.83;;;24.20;88.90;;;;;;4705417;30;20037;-74
2021/07/31 06:43:57;;;;;;;3.55;2.97;;;24.30;88.70;;;;;;4708785;30;20300;-75
2021/07/31 06:46:24;;;;;;;5.13;2.90;;;24.40;88.60;;;;;;4699969;30;20053;-75
2021/07/31 06:48:54;;;;;;;5.25;3.95;;;24.40;88.90;;;;;;4692354;30;20030;-75
2021/07/31 06:51:21;;;;;;;5.72;3.50;;;24.50;88.50;;;;;;4693521;30;20066;-74
2021/07/31 06:53:48;;;;;;;5.35;3.25;;;24.60;88.40;;;;;;4692036;30;20021;-74
2021/07/31 06:56:14;;;;;;;6.93;3.67;;;24.70;87.30;;;;;;4693592;30;20108;-74
2021/07/31 06:58:40;;;;;;;8.40;3.20;;;24.70;87.60;;;;;;4692211;30;20050;-74
2021/07/31 07:01:12;;;;;;;4.82;3.13;;;24.80;86.10;;;;;;4692878;30;20041;-75
2021/07/31 07:03:39;;;;;;;5.50;3.55;;;25.00;85.50;;;;;;4693655;30;20337;-75
2021/07/31 07:06:06;;;;;;;4.20;2.70;;;25.10;84.90;;;;;;4678106;30;20030;-74
2021/07/31 07:08:32;;;;;;;;;;;25.30;85.60;;;;;;4688413;30;20026;-74
2021/07/31 07:10:58;;;;;;;;;;;25.40;84.90;;;;;;4698736;30;19918;-74
2021/07/31 07:13:24;;;;;;;;;;;25.90;84.80;;;;;;4691441;30;19958;-74
2021/07/31 07:15:49;;;;;;;;;;;26.20;82.20;;;;;;4694188;30;19919;-75
2021/07/31 07:18:15;;;;;;;;;;;26.70;82.50;;;;;;4680483;30;19907;-75
2021/07/31 07:20:42;;;;;;;;;;;27.00;79.10;;;;;;4698750;30;19923;-75
2021/07/31 07:23:08;;;;;;;;;;;27.00;78.50;;;;;;4697356;30;19911;-75
2021/07/31 07:25:33;;;;;;;;;;;27.00;78.50;;;;;;4694963;30;19989;-74
2021/07/31 07:28:00;;;;;;;;;;;27.10;78.30;;;;;;4693657;30;20348;-74
2021/07/31 07:30:27;;;;;;;;;;;27.20;77.60;;;;;;4695766;30;19958;-74
2021/07/31 07:32:53;;;;;;;;;;;27.40;75.50;;;;;;4694556;30;19938;-74
2021/07/31 07:35:19;;;;;;;;;;;27.50;74.90;;;;;;4694808;30;19915;-74
2021/07/31 07:37:44;;;;;;;;;;;27.60;75.40;;;;;;4703311;30;19911;-74
2021/07/31 07:40:10;;;;;;;;;;;27.90;76.40;;;;;;4711988;30;19974;-74
2021/07/31 07:42:39;;;;;;;;;;;28.20;73.10;;;;;;4700679;30;19957;-74
2021/07/31 07:45:05;;;;;;;;;;;28.40;72.10;;;;;;4695466;30;19920;-73
2021/07/31 07:47:31;;;;;;;;;;;28.70;72.50;;;;;;4700033;30;19974;-74
2021/07/31 07:49:56;;;;;;;;;;;29.00;72.60;;;;;;4702473;30;19915;-74
2021/07/31 07:52:22;;;;;;;;;;;29.10;66.60;;;;;;4701426;30;19955;-74
2021/07/31 07:54:48;;;;;;;;;;;29.10;66.30;;;;;;4710794;30;20249;-74
2021/07/31 07:57:13;;;;;;;;;;;29.00;64.60;;;;;;4700971;30;19947;-74
2021/07/31 07:59:39;;;;;;;;;;;29.00;67.90;;;;;;4711240;30;20233;-74
2021/07/31 08:02:05;;;;;;;;;;;29.00;65.30;;;;;;4697475;30;19912;-73
2021/07/31 08:04:34;;;;;;;;;;;29.00;64.20;;;;;;4691117;30;19970;-74
2021/07/31 08:06:59;;;;;;;;;;;29.00;63.40;;;;;;4697811;30;19922;-74
2021/07/31 08:09:25;;;;;;;;;;;28.90;62.80;;;;;;4700055;30;19914;-74
2021/07/31 08:11:51;;;;;;;;;;;29.00;64.80;;;;;;4694265;30;19911;-74
2021/07/31 08:14:16;;;;;;;;;;;29.20;62.60;;;;;;4705099;30;19982;-74
2021/07/31 08:16:42;;;;;;;;;;;29.30;63.20;;;;;;4697312;30;19911;-74
2021/07/31 08:19:10;;;;;;;;;;;29.30;62.60;;;;;;4694149;30;19924;-75
2021/07/31 08:21:39;;;;;;;;;;;29.20;61.60;;;;;;4689421;30;19911;-74
2021/07/31 08:24:07;;;;;;;;;;;29.20;61.50;;;;;;4704004;30;19919;-74
2021/07/31 08:26:33;;;;;;;;;;;29.30;61.40;;;;;;4696813;30;19982;-73
2021/07/31 08:28:59;;;;;;;;;;;29.60;61.40;;;;;;4694283;30;19911;-74
2021/07/31 08:31:24;;;;;;;;;;;29.90;60.20;;;;;;4701295;30;19911;-74
2021/07/31 08:33:50;;;;;;;;;;;30.00;60.00;;;;;;4698525;30;19911;-75
2021/07/31 08:36:16;;;;;;;;;;;30.00;58.20;;;;;;4711375;30;20102;-73
2021/07/31 08:38:41;;;;;;;;;;;30.00;58.00;;;;;;4693847;30;20190;-74
2021/07/31 08:41:07;;;;;;;;;;;30.10;59.30;;;;;;4695431;30;19946;-74
2021/07/31 08:43:33;;;;;;;;;;;30.30;58.90;;;;;;4693940;30;20176;-74
2021/07/31 08:46:00;;;;;;;;;;;30.40;58.40;;;;;;4696098;30;19927;-74
2021/07/31 08:48:27;;;;;;;;;;;30.60;58.60;;;;;;4709500;30;19919;-73
2021/07/31 08:50:56;;;;;;;;;;;30.70;58.70;;;;;;4696534;30;19911;-73
2021/07/31 08:53:25;;;;;;;;;;;30.70;57.30;;;;;;4699941;30;19949;-74
2021/07/31 08:55:52;;;;;;;;;;;30.90;57.10;;;;;;4696200;30;19969;-74
2021/07/31 08:58:17;;;;;;;;;;;30.80;56.00;;;;;;4705083;30;20195;-73
2021/07/31 09:00:43;;;;;;;;;;;30.80;55.60;;;;;;4699166;30;19911;-74
2021/07/31 09:03:15;;;;;;;;;;;30.70;56.20;;;;;;4703511;30;19919;-74
2021/07/31 09:05:41;;;;;;;;;;;30.80;57.80;;;;;;4703465;30;19948;-74
2021/07/31 09:08:07;;;;;;;;;;;30.90;56.30;;;;;;4706546;30;19907;-74
2021/07/31 09:10:34;;;;;;;;;;;30.80;57.00;;;;;;4702385;30;19911;-73
2021/07/31 09:13:01;;;;;;;;;;;30.50;55.60;;;;;;4694647;30;19919;-73
2021/07/31 09:15:35;;;;;;;;;;;30.40;56.20;;;;;;4701792;30;20331;-74
2021/07/31 09:27:37;;;;;;;11.10;4.57;;;29.50;73.30;;;;;;5015099;28;20387;-62
2021/07/31 10:09:32;;;;;;;5.13;4.30;;;29.20;66.30;;;;;;5118071;27;20425;-78
2021/07/31 10:11:58;;;;;;;8.13;4.05;;;29.40;63.40;;;;;;5102413;28;20020;-76
2021/07/31 10:14:24;;;;;;;4.60;4.20;;;29.70;63.50;;;;;;5099292;28;20085;-76
2021/07/31 10:16:51;;;;;;;8.33;4.13;;;29.90;60.70;;;;;;5100448;28;20024;-77
2021/07/31 10:19:18;;;;;;;7.50;4.25;;;30.00;61.60;;;;;;5101410;28;20040;-77
2021/07/31 10:21:52;;;;;;;7.97;4.15;;;30.30;61.00;;;;;;5100631;28;20032;-77
2021/07/31 10:24:19;;;;;;;5.15;4.43;;;30.60;60.70;;;;;;5100406;28;20016;-77
2021/07/31 10:27:15;;;;;;;4.68;4.07;;;30.50;57.20;;;;;;5099978;28;20310;-77
2021/07/31 10:29:46;;;;;;;5.95;3.83;;;30.50;57.90;;;;;;5101103;28;20062;-76
2021/07/31 10:32:32;;;;;;;10.55;8.40;;;30.70;58.40;;;;;;5101364;28;20092;-77
2021/07/31 10:35:03;;;;;;;;;;;31.00;58.40;;;;;;5099748;28;20023;-77
2021/07/31 10:37:29;;;;;;;5.53;4.38;;;31.10;58.10;;;;;;5100047;28;19967;-77
2021/07/31 10:39:59;;;;;;;7.63;4.73;;;30.90;56.70;;;;;;5099551;28;20028;-77
2021/07/31 10:42:26;;;;;;;6.57;4.15;;;30.80;57.50;;;;;;5099740;28;20060;-77
2021/07/31 10:45:23;;;;;;;9.20;4.72;;;30.90;56.80;;;;;;5100124;28;20027;-77
2021/07/31 10:47:53;;;;;;;5.20;4.10;;;31.00;57.80;;;;;;5078637;28;20037;-76
2021/07/31 10:50:22;;;;;;;7.65;5.13;;;31.40;57.50;;;;;;5080500;28;20024;-76
2021/07/31 10:53:10;;;;;;;14.02;4.88;;;31.50;56.70;;;;;;5079915;28;20079;-77
2021/07/31 10:55:36;;;;;;;5.88;4.15;;;31.60;57.90;;;;;;5078878;28;20031;-77
2021/07/31 10:58:14;;;;;;;5.03;4.53;;;31.60;55.10;;;;;;5078543;28;20352;-76
2021/07/31 11:01:14;;;;;;;7.30;4.30;;;31.50;55.00;;;;;;5079516;28;20050;-77
2021/07/31 11:03:41;;;;;;;7.57;5.38;;;31.10;57.30;;;;;;5057805;28;20136;-77
2021/07/31 11:06:07;;;;;;;7.32;4.60;;;30.80;56.40;;;;;;5034253;28;20075;-76
2021/07/31 11:08:53;;;;;;;6.43;4.47;;;31.00;56.50;;;;;;5077382;28;20067;-77
2021/07/31 11:11:18;;;;;;;6.20;4.22;;;30.70;56.70;;;;;;5018012;28;20038;-77
2021/07/31 11:13:44;;;;;;;10.87;4.13;;;30.80;57.80;;;;;;5018024;28;20218;-76
2021/07/31 11:16:18;;;;;;;9.97;4.67;;;30.90;57.00;;;;;;5017522;28;20038;-76
2021/07/31 11:18:51;;;;;;;4.88;4.38;;;31.00;56.90;;;;;;5013890;28;20026;-77
2021/07/31 11:21:21;;;;;;;4.80;4.28;;;31.00;56.00;;;;;;5004790;28;20065;-76
2021/07/31 11:23:52;;;;;;;11.13;4.93;;;31.20;56.30;;;;;;4989299;28;20057;-77
2021/07/31 11:26:49;;;;;;;4.88;4.43;;;31.10;56.70;;;;;;5005197;28;20098;-77
2021/07/31 11:29:18;;;;;;;5.10;4.47;;;31.00;56.40;;;;;;5004861;28;20050;-77
2021/07/31 11:31:58;;;;;;;5.43;4.63;;;30.80;57.20;;;;;;4988528;28;20030;-76
2021/07/31 11:34:24;;;;;;;4.72;4.25;;;30.60;56.40;;;;;;5004588;28;20045;-77
2021/07/31 11:36:58;;;;;;;6.93;5.13;;;30.30;58.40;;;;;;5004280;28;20097;-77
2021/07/31 11:39:25;;;;;;;8.57;5.10;;;30.00;57.40;;;;;;5004872;28;20027;-78
2021/07/31 11:41:51;;;;;;;5.82;4.35;;;29.80;57.90;;;;;;4987143;28;20043;-76
2021/07/31 11:44:27;;;;;;;10.20;5.07;;;29.80;58.00;;;;;;5004282;28;20214;-77
2021/07/31 11:46:53;;;;;;;8.47;4.37;;;29.70;58.70;;;;;;4987608;28;20065;-76
2021/07/31 11:49:25;;;;;;;10.85;4.47;;;29.90;58.90;;;;;;5063070;28;20056;-77
2021/07/31 11:51:56;;;;;;;7.60;4.90;;;30.00;59.00;;;;;;5073963;28;20037;-77
2021/07/31 11:54:23;;;;;;;6.03;4.07;;;30.30;59.70;;;;;;5080525;28;20027;-77
2021/07/31 11:56:50;;;;;;;6.90;4.40;;;30.60;57.00;;;;;;5057204;28;20025;-76
2021/07/31 11:59:45;;;;;;;5.07;4.55;;;31.00;57.50;;;;;;5065177;28;20189;-77
2021/07/31 12:02:13;;;;;;;7.32;4.63;;;31.20;55.30;;;;;;5046523;28;20043;-77
2021/07/31 12:04:45;;;;;;;6.82;4.80;;;31.20;55.40;;;;;;5063012;28;20124;-77
2021/07/31 12:07:14;;;;;;;7.22;3.47;;;31.10;55.00;;;;;;5046167;28;20048;-77
2021/07/31 12:09:41;;;;;;;4.80;3.92;;;31.00;53.70;;;;;;5046640;28;20214;-77
2021/07/31 12:12:45;;;;;;;6.82;4.30;;;30.90;55.40;;;;;;5063001;28;20032;-76
2021/07/31 12:15:26;;;;;;;6.18;4.82;;;31.20;53.50;;;;;;5003802;28;20057;-77
2021/07/31 12:17:55;;;;;;;4.20;3.80;;;31.10;54.70;;;;;;5003411;28;20353;-77
2021/07/31 12:20:37;;;;;;;11.43;4.68;;;31.40;53.90;;;;;;5003654;28;20034;-77
2021/07/31 12:23:08;;;;;;;5.68;4.10;;;31.60;53.30;;;;;;5003830;28;20057;-77
2021/07/31 12:25:36;;;;;;;4.85;4.05;;;31.60;54.90;;;;;;4987514;28;20084;-77
2021/07/31 12:28:12;;;;;;;5.88;4.32;;;31.60;53.70;;;;;;5003289;28;20031;-77
2021/07/31 12:30:40;;;;;;;4.10;3.70;;;31.60;54.00;;;;;;4982069;28;20352;-77
2021/07/31 12:33:06;;;;;;;4.82;3.65;;;31.50;54.30;;;;;;5002983;28;20037;-77
2021/07/31 12:35:31;;;;;;;5.03;4.20;;;31.60;53.60;;;;;;5002960;28;20038;-78
2021/07/31 12:37:57;;;;;;;4.40;3.60;;;31.80;51.80;;;;;;4999671;28;20042;-78
2021/07/31 12:40:23;;;;;;;4.90;3.97;;;31.80;52.00;;;;;;5002417;28;20042;-76
2021/07/31 12:42:49;;;;;;;4.40;3.97;;;31.90;52.70;;;;;;4983271;28;20034;-77
2021/07/31 12:45:15;;;;;;;5.40;3.87;;;32.00;52.90;;;;;;5017473;28;20033;-76
2021/07/31 12:47:41;;;;;;;4.72;3.63;;;31.90;52.80;;;;;;4985124;28;20030;-77
2021/07/31 12:50:07;;;;;;;4.30;3.30;;;31.80;52.30;;;;;;5052515;28;20090;-76
2021/07/31 12:52:33;;;;;;;4.50;3.45;;;31.70;50.80;;;;;;5062150;28;20031;-76
2021/07/31 12:54:59;;;;;;;4.43;3.93;;;31.50;51.20;;;;;;5057398;28;20060;-77
2021/07/31 12:57:24;;;;;;;5.37;4.00;;;31.70;51.80;;;;;;5063078;28;20028;-76
2021/07/31 12:59:50;;;;;;;11.17;3.57;;;31.70;52.30;;;;;;5079179;28;20045;-77
2021/07/31 13:02:16;;;;;;;7.07;3.50;;;31.70;50.90;;;;;;5063819;28;20070;-76
2021/07/31 13:04:42;;;;;;;7.50;3.40;;;31.70;51.50;;;;;;5079567;28;20029;-76
2021/07/31 13:07:07;;;;;;;5.93;3.90;;;31.70;52.10;;;;;;5061797;28;21976;-77
2021/07/31 13:09:33;;;;;;;6.63;3.93;;;31.80;51.10;;;;;;5070530;28;20025;-76
2021/07/31 13:11:59;;;;;;;5.67;3.67;;;31.90;51.40;;;;;;5068103;28;20039;-77
2021/07/31 13:14:26;;;;;;;4.03;3.63;;;31.90;50.80;;;;;;5061773;28;20036;-76
2021/07/31 13:16:52;;;;;;;4.05;3.65;;;31.90;50.70;;;;;;5061960;28;20304;-76
2021/07/31 13:19:18;;;;;;;4.33;3.50;;;32.10;50.50;;;;;;5059052;28;20022;-76
2021/07/31 13:21:44;;;;;;;4.03;3.47;;;32.20;49.70;;;;;;5062253;28;20017;-77
2021/07/31 13:24:10;;;;;;;4.33;3.03;;;32.20;50.40;;;;;;5061566;28;20021;-76
2021/07/31 13:26:36;;;;;;;6.28;3.22;;;31.90;51.00;;;;;;5070252;28;20024;-76
2021/07/31 13:29:02;;;;;;;4.63;3.07;;;31.90;50.90;;;;;;5062685;28;20196;-76
2021/07/31 13:31:28;;;;;;;6.97;3.27;;;31.90;51.00;;;;;;5061787;28;20292;-76
2021/07/31 13:33:54;;;;;;;3.47;2.70;;;32.10;51.90;;;;;;5061445;28;20027;-77
2021/07/31 13:36:19;;;;;;;4.93;3.80;;;32.30;50.20;;;;;;5063077;28;20293;-77
2021/07/31 13:38:49;;;;;;;4.23;3.03;;;32.20;51.00;;;;;;5061663;28;20021;-76
2021/07/31 13:41:16;;;;;;;5.53;3.22;;;32.10;50.20;;;;;;5062380;28;20100;-77
2021/07/31 13:43:43;;;;;;;3.65;3.00;;;32.00;48.90;;;;;;5049415;28;20064;-76
2021/07/31 13:46:09;;;;;;;3.55;3.10;;;32.00;48.90;;;;;;5055685;28;20307;-76
2021/07/31 13:48:36;;;;;;;4.80;3.17;;;31.90;49.00;;;;;;5061944;28;20055;-76
2021/07/31 13:51:02;;;;;;;5.15;3.15;;;32.10;49.40;;;;;;5062155;28;20025;-77
2021/07/31 13:53:28;;;;;;;4.10;3.50;;;32.20;49.40;;;;;;5045263;28;20150;-76
2021/07/31 13:55:54;;;;;;;3.75;3.05;;;32.10;46.00;;;;;;5078776;28;20025;-77
2021/07/31 13:58:21;;;;;;;8.05;3.50;;;31.90;48.00;;;;;;5060733;28;20216;-77
2021/07/31 14:00:47;;;;;;;;;;;31.80;47.60;;;;;;5062595;28;20033;-77
2021/07/31 14:03:14;;;;;;;6.45;3.30;;;31.90;47.70;;;;;;5061216;28;19911;-77
2021/07/31 14:05:39;;;;;;;;;;;31.90;48.00;;;;;;5063527;28;20032;-77
2021/07/31 14:08:05;;;;;;;7.80;3.83;;;31.90;50.00;;;;;;5061664;28;19913;-77
2021/07/31 14:10:31;;;;;;;3.83;3.53;;;32.00;48.20;;;;;;5062494;28;20040;-77
2021/07/31 14:12:58;;;;;;;5.57;3.27;;;31.90;48.50;;;;;;5062918;28;20032;-77
2021/07/31 14:15:23;;;;;;;4.55;3.30;;;31.80;47.60;;;;;;5061163;28;20047;-77
2021/07/31 14:17:49;;;;;;;4.27;3.70;;;31.90;49.10;;;;;;5062971;28;20020;-76
2021/07/31 14:20:15;;;;;;;6.70;3.50;;;32.00;48.50;;;;;;5043046;28;20177;-77
2021/07/31 14:22:41;;;;;;;4.67;3.40;;;32.20;50.90;;;;;;5062868;28;20025;-77
2021/07/31 14:25:07;;;;;;;5.73;3.43;;;32.50;49.20;;;;;;5062170;28;20264;-78
2021/07/31 14:27:34;;;;;;;6.35;3.15;;;32.80;49.60;;;;;;5061267;28;20033;-77
2021/07/31 14:30:00;;;;;;;4.10;3.70;;;33.10;50.20;;;;;;5058358;28;20033;-78
2021/07/31 14:32:26;;;;;;;3.90;3.50;;;33.20;48.10;;;;;;5043462;28;20048;-76
2021/07/31 14:34:52;;;;;;;4.00;3.33;;;33.10;48.00;;;;;;5061975;28;20090;-76
2021/07/31 14:37:18;;;;;;;4.72;3.35;;;32.90;48.00;;;;;;5061108;28;20033;-77
2021/07/31 14:39:44;;;;;;;4.23;3.63;;;32.80;48.60;;;;;;5058229;28;20032;-76
2021/07/31 14:42:11;;;;;;;5.37;4.03;;;32.70;47.10;;;;;;5056304;28;20025;-76
2021/07/31 14:44:36;;;;;;;;;;;32.70;48.70;;;;;;5059150;28;20040;-76
2021/07/31 14:47:02;;;;;;;4.40;3.53;;;32.60;48.20;;;;;;5061333;28;19905;-76
2021/07/31 14:49:28;;;;;;;4.63;3.47;;;32.50;49.00;;;;;;5060997;28;20028;-76
2021/07/31 14:51:54;;;;;;;5.70;3.50;;;32.60;49.50;;;;;;5060886;28;20625;-76
2021/07/31 14:54:20;;;;;;;3.47;3.17;;;32.70;47.80;;;;;;5062247;28;20017;-77
2021/07/31 14:56:45;;;;;;;3.43;3.13;;;32.80;48.90;;;;;;5065070;28;20067;-77
2021/07/31 14:59:11;;;;;;;4.80;3.63;;;32.90;48.40;;;;;;5066180;28;20047;-76
2021/07/31 15:01:37;;;;;;;4.10;3.70;;;32.80;47.60;;;;;;5060999;28;20033;-77
2021/07/31 15:04:04;;;;;;;5.60;3.57;;;32.90;47.90;;;;;;5056179;28;20031;-77
2021/07/31 15:06:30;;;;;;;3.70;3.33;;;33.00;47.20;;;;;;5064792;28;20071;-78
2021/07/31 15:08:57;;;;;;;3.97;3.40;;;32.80;47.60;;;;;;5064251;28;20044;-77
2021/07/31 15:11:23;;;;;;;9.88;7.85;;;32.80;50.30;;;;;;5063886;28;20021;-76
2021/07/31 15:13:48;;;;;;;6.33;3.53;;;32.80;48.60;;;;;;5064271;28;20063;-77
2021/07/31 15:16:14;;;;;;;3.80;3.30;;;32.80;48.70;;;;;;5081244;28;20040;-77
2021/07/31 15:18:40;;;;;;;9.30;3.57;;;32.70;47.60;;;;;;5065778;28;20062;-77
2021/07/31 15:21:06;;;;;;;4.67;3.47;;;32.60;47.30;;;;;;5064745;28;20033;-77
2021/07/31 15:23:32;;;;;;;3.47;3.17;;;32.50;47.20;;;;;;5047717;28;20029;-76
2021/07/31 15:25:58;;;;;;;4.57;3.30;;;32.60;47.60;;;;;;5062405;28;20040;-77
2021/07/31 15:28:24;;;;;;;5.33;3.80;;;32.50;47.30;;;;;;5078399;28;20205;-76
2021/07/31 15:30:49;;;;;;;5.13;2.93;;;32.30;46.50;;;;;;5076590;28;20021;-76
2021/07/31 15:33:18;;;;;;;5.67;3.40;;;32.30;48.00;;;;;;5063871;28;20021;-76
2021/07/31 15:35:44;;;;;;;5.03;3.20;;;32.50;47.40;;;;;;5063812;28;20025;-77
2021/07/31 15:38:10;;;;;;;3.80;3.20;;;32.60;47.80;;;;;;5065152;28;20031;-76
2021/07/31 15:40:35;;;;;;;3.20;2.90;;;32.70;46.20;;;;;;5063796;28;20084;-77
2021/07/31 15:43:02;;;;;;;4.13;3.20;;;32.50;47.30;;;;;;5047166;28;20324;-77
2021/07/31 15:45:28;;;;;;;3.47;3.17;;;32.50;47.40;;;;;;5063303;28;20124;-77
2021/07/31 15:47:53;;;;;;;3.03;2.70;;;32.50;48.10;;;;;;5061885;28;20049;-77
2021/07/31 15:50:19;;;;;;;4.10;3.30;;;32.60;45.50;;;;;;5063507;28;20103;-77
2021/07/31 15:52:45;;;;;;;3.20;2.73;;;32.30;44.30;;;;;;5063111;28;20017;-77
2021/07/31 15:55:11;;;;;;;3.43;3.10;;;32.30;45.00;;;;;;5070816;28;20332;-77
2021/07/31 15:57:37;;;;;;;3.47;3.03;;;32.20;45.10;;;;;;5065444;28;20059;-77
2021/07/31 16:00:04;;;;;;;4.53;3.03;;;32.20;46.00;;;;;;5068175;28;20060;-78
2021/07/31 16:02:30;;;;;;;3.65;3.05;;;32.30;46.40;;;;;;5060758;28;20275;-77
2021/07/31 16:04:55;;;;;;;3.80;3.17;;;32.40;46.70;;;;;;5052642;28;20033;-78
2021/07/31 16:07:21;;;;;;;3.33;3.03;;;32.30;45.50;;;;;;5037407;28;20041;-78
2021/07/31 16:09:47;;;;;;;3.53;2.70;;;32.30;46.10;;;;;;5061639;28;20036;-78
2021/07/31 16:12:13;;;;;;;4.43;2.77;;;32.30;45.40;;;;;;5082063;28;20028;-78
2021/07/31 16:14:38;;;;;;;4.93;3.30;;;32.30;45.40;;;;;;5065043;28;20025;-77
2021/07/31 16:17:04;;;;;;;3.83;2.93;;;32.30;45.30;;;;;;5064355;28;20025;-78
2021/07/31 16:19:30;;;;;;;6.70;3.30;;;32.20;46.00;;;;;;5063292;28;20025;-78
2021/07/31 16:21:56;;;;;;;6.30;3.87;;;32.10;45.70;;;;;;5064423;28;20021;-78
2021/07/31 16:24:22;;;;;;;3.43;2.67;;;32.10;45.50;;;;;;5064602;28;20020;-78
2021/07/31 16:26:47;;;;;;;3.20;2.77;;;32.20;45.90;;;;;;5064405;28;20025;-78
2021/07/31 16:29:13;;;;;;;2.70;2.50;;;32.20;44.30;;;;;;5046043;28;20031;-78
2021/07/31 16:31:39;;;;;;;2.90;2.67;;;32.20;44.30;;;;;;5044496;28;20345;-78
2021/07/31 16:34:05;;;;;;;2.93;2.60;;;32.10;44.30;;;;;;5053557;28;20025;-77
2021/07/31 16:36:31;;;;;;;3.53;3.17;;;32.10;44.20;;;;;;5063561;28;20020;-78
2021/07/31 16:38:57;;;;;;;4.72;3.90;;;32.00;44.10;;;;;;5063211;28;20025;-77